Friendship, IN (47021)

6:32 PM EDT on August 28, 2015 (GMT -0400)
APRSWXNET | | Change Station
CLOSE
Current Station
Personal Weather Station
Location: Versailles, IN
Elevation: 961 ft
Nearby Weather Stations

Elev 961 ft 39.07 °N, 85.25 °W | Updated 24 minutes ago

Clear
Clear
79 °F
Feels Like 80 °F
N
3
Wind Variable Wind from NE
Gusts 6.0 mph

Today
High -- | Low -- °F
--% Chance of Precip.
Yesterday
High -- | Low -- °F
Precip. -- in
7:05 AM 8:17 PM
Waxing Gibbous, 99% visible
Pressure 30.10 in
Visibility 10.0 miles
Clouds Few 4500 ft
Overcast 25000 ft
Heat Index 80 °F
Dew Point 61 °F
Humidity 54%
Rainfall in
Snow Depth Not available.
UV 1 out of 12
Pollen 10.50 out of 12
Air Quality Not available.
Flu Activity Not available.
METAR KCVG 282152Z 17007KT 10SM FEW045 OVC250 26/14 A3012 RMK AO2 SLP193 T02560139
Pressure 30.10 in
Visibility 10.0 miles
Clouds Few 4500 ft
Overcast 25000 ft
Heat Index 80 °F
Dew Point 61 °F
Humidity 54%
Rainfall in
Snow Depth Not available.
UV 1 out of 12
Pollen 10.50 out of 12
Air Quality Not available.
Flu Activity Not available.
METAR KCVG 282152Z 17007KT 10SM FEW045 OVC250 26/14 A3012 RMK AO2 SLP193 T02560139

10-Day Weather Forecast

×

Almanac

Astronomy

Aug. 28, 2015 Rise Set
Actual Time
Civil Twilight
Nautical Twilight
Astronomical Twilight
Moon
Length of Visible Light
Length of Day
Tomorrow will be .
, % of the Moon is Illuminated

Today's Extremes

State Highs State Lows

Community

WunderPhotos

Upload Photos

1,850,515 photos uploaded!

WunderBlogs® & News

Nearby

Air Quality

  Air Quality AQ Index Pollutant
Not available.

Snow Depth

Station Depth Elevation

Earthquake Activity

City Distance Mag. Time & Date
Minimum magnitude displayed is 2.5.

Coastal Water Temperatures

Place Temperature

Stations

Nearby Weather Stations

Station Location Temp. Windchill Dew Point Humidity Wind Precip. Elev Updated Type